Terminal Aerodrome Forecast
Issued by NWS

Home | Current Version | Previous Version | Text Only | Print | Product List | Glossary On
Versions: 1 2 3 4 5 6 7 8 9 10 11 12 13 14
930
FTUS41 KBTV 261120
TAFRUT
TAF
KRUT 261120Z 2612/2712 13005KT P6SM SCT250
     FM261400 VRB03KT P6SM FEW040 SCT250
     FM261700 15006KT P6SM SCT040 BKN200
     FM270000 14007KT P6SM BKN200
     FM270600 13005KT 6SM BR SCT200=

USA.gov is the U.S. government's official web portal to all federal, state and local government web resources and services.